Terminal Aerodrome Forecast
Issued by NWS

Home | Current Version | Previous Version | Text Only | Print | Product List | Glossary On
Versions: 1 2 3 4 5 6 7 8 9 10 11 12 13
802
FTUS42 TJSJ 201140
TAFNCM
TAF
TNCM 201140Z 2012/2112 VRB03KT P6SM FEW018
     FM201300 16010KT P6SM VCSH FEW020 SCT040
     FM202300 22007KT P6SM VCSH SCT018 SCT022=

USA.gov is the U.S. government's official web portal to all federal, state and local government web resources and services.